• Join FlightAware (Why Join?)
  • Login
  • US Flag 
10:22AM EDT


 

Airport Tracker/Info


-or-


 

Live Flight TrackerFlight Track Log ✈ UAL5829 ✈ 26-Apr-2013 ✈ KIAD - KORF

Flight Track Log - Related Links

Times and Time Zones

All times are in EDT time to prevent confusion due to time zone crossing. See the UAL5829 flight status page for this flight to view local times or setup timezone preferences in your user account.

Time Position Orientation Groundspeed Altitude Reporting Facility
EDT Latitude Longitude Course Direction KTS MPH feet Rate Location/Type
12:41PM 38.9833 -77.4333 125° Southeast 175 201 2,200  Level Potomac TRACON
12:42PM 39.0333 -77.4500 345° North 234 269 3,800 2,160 Climbing Potomac TRACON
12:43PM 38.8000 -77.1709 90° East  Level FlightAware Approximate
12:43PM 39.1000 -77.4333 11° North 261 300 6,400  Level Potomac TRACON
12:44PM 38.7483 -77.0799 123° Southeast  Level FlightAware Approximate
12:44PM 39.1500 -77.3667 46° Northeast 277 319 8,800  Level Potomac TRACON
12:45PM 38.6991 -76.9844 125° Southeast  Level FlightAware Approximate
12:45PM 39.1500 -77.2667 90° East 301 346 10,700  Level Potomac TRACON
12:46PM 38.6479 -76.8906 125° Southeast  Level FlightAware Approximate
12:46PM 39.1167 -77.1500 110° East 343 395 11,800  Level Potomac TRACON
12:47PM 39.0667 -77.0333 119° Southeast 364 419 13,100 1,140 Climbing Potomac TRACON
12:48PM 38.9833 -76.9833 155° Southeast 372 428 14,000 420 Climbing Potomac TRACON
12:49PM 38.9000 -76.9167 148° Southeast 420 483 14,000  Level Potomac TRACON
12:50PM 38.8000 -76.8667 159° South 402 463 14,000  Level Potomac TRACON
12:50PM 38.7153 -76.8236 158° South 390 449 14,000  Level Washington Center
12:51PM 38.6344 -76.7717 153° Southeast 385 443 14,000  Level Washington Center
12:52PM 38.5347 -76.7250 160° South 391 450 14,000  Level Washington Center
12:53PM 38.4267 -76.7100 174° South 386 444 14,000  Level Washington Center
12:54PM 38.3183 -76.6978 175° South 391 450 14,000  Level Washington Center
12:55PM 38.2017 -76.6778 172° South 391 450 14,000  Level Washington Center
12:56PM 38.0956 -76.6631 174° South 391 450 14,000  Level Washington Center
12:57PM 37.9869 -76.6719 184° South 386 444 14,000  Level Washington Center
12:58PM 37.8783 -76.6758 182° South 386 444 14,000  Level Washington Center
12:59PM 37.8119 -76.6328 153° Southeast 401 461 14,000  Level Washington Center
12:59PM 37.7872 -76.6008 134° Southeast 381 438 14,000 -840 Level Washington Center
01:00PM 37.7150 -76.5053 134° Southeast 404 465 13,000 -1,620 Descending Washington Center
01:01PM 37.6428 -76.4047 132° Southeast 388 447 11,000 -1,560 Descending Washington Center
01:02PM 37.5536 -76.3253 145° Southeast 375 432 9,900 -540 Descending Washington Center
01:03PM 37.4597 -76.3086 172° South 340 391 10,000  Climbing Washington Center
01:04PM 37.3681 -76.2947 173° South 354 407 10,000 -420 Level Washington Center
01:05PM 37.2786 -76.2783 172° South 283 326 9,200 -1,140 Descending Washington Center
01:06PM 37.2014 -76.2619 170° South 306 352 7,700 -1,500 Descending Washington Center
01:07PM 37.1286 -76.2483 172° South 280 322 6,200 -1,320 Descending Washington Center
01:08PM 37.0597 -76.2347 171° South 266 306 5,100 -1,020 Descending Washington Center
01:09PM 36.9989 -76.2811 211° Southwest 234 269 4,100 -660 Descending Washington Center
01:10PM 36.9383 -76.3219 208° Southwest 233 268 3,700 -420 Descending Washington Center